createdAt,value
2019-04-26T00:01:20.441Z,36.67
2019-04-26T00:03:50.015Z,35.87
2019-04-26T00:06:19.914Z,34.57
2019-04-26T00:08:53.930Z,34.13
2019-04-26T00:11:51.785Z,34.07
2019-04-26T00:14:40.108Z,39.77
2019-04-26T00:17:13.708Z,45.20
2019-04-26T00:19:43.475Z,45.73
2019-04-26T00:22:13.753Z,46.50
2019-04-26T00:24:44.609Z,48.60
2019-04-26T00:27:14.807Z,49.80
2019-04-26T00:29:44.387Z,46.97
2019-04-26T00:32:13.717Z,48.73
2019-04-26T00:34:43.140Z,49.43
2019-04-26T00:37:13.159Z,48.53
2019-04-26T00:39:43.421Z,49.90
2019-04-26T00:42:14.614Z,47.47
2019-04-26T00:44:44.881Z,50.67
2019-04-26T00:47:15.419Z,51.83
2019-04-26T00:49:45.093Z,51.23
2019-04-26T00:52:15.792Z,55.70
2019-04-26T00:54:46.272Z,56.73
2019-04-26T00:57:18.259Z,56.57
2019-04-26T00:59:49.217Z,55.80
2019-04-26T01:02:25.176Z,56.97
2019-04-26T01:04:54.551Z,55.10
2019-04-26T01:07:23.896Z,53.67
2019-04-26T01:09:53.378Z,56.70
2019-04-26T01:12:23.863Z,54.40
2019-04-26T01:14:53.270Z,48.47
2019-04-26T01:17:22.668Z,51.53
2019-04-26T01:19:54.888Z,50.67
2019-04-26T01:22:27.808Z,53.23
2019-04-26T01:24:59.296Z,57.67
2019-04-26T01:27:30.423Z,53.60
2019-04-26T01:30:03.572Z,51.90
2019-04-26T01:32:34.953Z,52.07
2019-04-26T01:35:04.510Z,52.57
2019-04-26T01:37:34.664Z,57.20
2019-04-26T01:40:08.176Z,53.17
2019-04-26T01:42:58.833Z,49.87
2019-04-26T01:45:40.349Z,50.70
2019-04-26T01:48:32.885Z,48.87
2019-04-26T01:51:02.433Z,51.70
2019-04-26T01:53:32.983Z,55.23
2019-04-26T01:56:02.669Z,53.40
2019-04-26T01:58:32.247Z,53.57
2019-04-26T02:01:35.604Z,50.83
2019-04-26T02:04:05.170Z,48.97
2019-04-26T02:06:35.306Z,54.73
2019-04-26T02:09:07.943Z,53.40
2019-04-26T02:11:37.938Z,54.77
2019-04-26T02:14:07.849Z,57.50
2019-04-26T02:16:37.398Z,55.23
2019-04-26T02:19:07.301Z,57.97
2019-04-26T02:21:42.731Z,56.20
2019-04-26T02:24:17.313Z,56.93
2019-04-26T02:26:48.091Z,56.50
2019-04-26T02:29:20.730Z,60.93
2019-04-26T02:31:55.287Z,60.77
2019-04-26T02:34:27.954Z,59.00
2019-04-26T02:36:59.867Z,55.77
2019-04-26T02:39:35.336Z,61.27
2019-04-26T02:42:07.801Z,62.70
2019-04-26T02:44:46.344Z,57.37
2019-04-26T02:47:44.118Z,61.73
2019-04-26T02:50:19.789Z,51.77
2019-04-26T02:53:17.868Z,53.97
2019-04-26T02:56:15.499Z,48.07
2019-04-26T02:59:07.998Z,49.73
2019-04-26T03:01:38.753Z,50.30
2019-04-26T03:04:08.679Z,50.90
2019-04-26T03:06:41.229Z,52.73
2019-04-26T03:09:13.329Z,53.40
2019-04-26T03:11:45.872Z,54.00
2019-04-26T03:14:37.067Z,52.47
2019-04-26T03:17:26.576Z,53.20
2019-04-26T03:20:02.437Z,55.73
2019-04-26T03:23:21.512Z,57.80
2019-04-26T03:26:43.367Z,60.23
2019-04-26T03:29:32.897Z,64.40
2019-04-26T03:32:49.391Z,61.33
2019-04-26T03:35:28.963Z,57.90
2019-04-26T03:38:17.287Z,53.27
2019-04-26T03:41:12.894Z,52.20
2019-04-26T03:43:55.291Z,51.17
2019-04-26T03:46:49.898Z,54.37
2019-04-26T03:50:02.653Z,58.17
2019-04-26T03:52:57.994Z,53.77
2019-04-26T03:56:23.612Z,55.80
2019-04-26T03:59:14.560Z,55.63
2019-04-26T04:02:06.750Z,58.57
2019-04-26T04:04:46.725Z,56.30
2019-04-26T04:07:35.594Z,55.37
2019-04-26T04:09:54.461Z,55.83
2019-04-26T04:12:49.058Z,52.10
2019-04-26T04:15:24.915Z,51.30
2019-04-26T04:18:00.746Z,51.63
2019-04-26T04:21:11.285Z,50.27
2019-04-26T04:23:57.389Z,49.63
2019-04-26T04:26:39.718Z,49.67
2019-04-26T04:29:55.674Z,47.87
2019-04-26T04:32:51.728Z,48.13
2019-04-26T04:35:24.127Z,49.97
2019-04-26T04:38:09.286Z,49.17
2019-04-26T04:41:11.564Z,47.47
2019-04-26T04:43:49.447Z,46.83
2019-04-26T04:46:37.785Z,47.13
2019-04-26T04:49:30.668Z,43.13
2019-04-26T04:52:31.012Z,44.33
2019-04-26T04:55:08.810Z,42.83
2019-04-26T04:58:10.453Z,43.27
2019-04-26T05:01:22.358Z,42.10
2019-04-26T05:04:06.154Z,40.77
2019-04-26T05:07:10.334Z,42.37
2019-04-26T05:09:45.714Z,41.57
2019-04-26T05:12:22.609Z,43.07
2019-04-26T05:15:54.947Z,40.53
2019-04-26T05:18:54.827Z,41.27
2019-04-26T05:21:39.527Z,41.80
2019-04-26T05:24:34.764Z,40.77
2019-04-26T05:27:49.640Z,37.50
2019-04-26T05:31:17.677Z,36.67
2019-04-26T05:34:10.422Z,35.57
2019-04-26T05:37:15.512Z,35.37
2019-04-26T05:39:53.446Z,34.37
2019-04-26T05:42:51.635Z,31.27
2019-04-26T05:46:11.195Z,29.80
2019-04-26T05:49:16.760Z,29.40
2019-04-26T05:52:21.886Z,28.13
2019-04-26T05:55:29.476Z,27.40
2019-04-26T05:58:26.438Z,28.73
2019-04-26T06:01:28.025Z,27.83
2019-04-26T06:04:39.441Z,26.57
2019-04-26T06:07:37.108Z,27.03
2019-04-26T06:10:22.647Z,27.60
2019-04-26T06:13:02.952Z,26.47
2019-04-26T06:15:52.773Z,26.03
2019-04-26T06:18:53.110Z,26.33
2019-04-26T06:21:49.167Z,25.50
2019-04-26T06:24:41.214Z,25.73
2019-04-26T06:27:48.805Z,25.30
2019-04-26T06:30:31.165Z,24.47
2019-04-26T06:33:29.450Z,23.93
2019-04-26T06:36:04.391Z,23.30
2019-04-26T06:39:30.099Z,24.13
2019-04-26T06:42:27.243Z,24.87
2019-04-26T06:45:32.529Z,24.83
2019-04-26T06:48:15.953Z,23.67
2019-04-26T06:50:52.421Z,23.23
2019-04-26T06:53:59.222Z,23.42
2019-04-26T06:56:57.116Z,22.53
2019-04-26T07:00:08.739Z,23.32
2019-04-26T07:03:03.785Z,23.20
2019-04-26T07:05:36.351Z,22.45
2019-04-26T07:08:40.468Z,19.85
2019-04-26T07:12:15.629Z,21.20
2019-04-26T07:15:03.716Z,18.73
2019-04-26T07:17:46.657Z,16.82
2019-04-26T07:20:36.486Z,14.25
2019-04-26T07:23:34.830Z,13.62
2019-04-26T07:26:43.410Z,13.10
2019-04-26T07:29:30.573Z,13.25
2019-04-26T07:32:17.722Z,13.28
2019-04-26T07:35:04.709Z,11.90
2019-04-26T07:38:12.043Z,12.25
2019-04-26T07:41:23.259Z,11.63
2019-04-26T07:44:22.972Z,11.68
2019-04-26T07:47:34.871Z,12.30
2019-04-26T07:50:43.948Z,11.63
2019-04-26T07:53:33.777Z,11.12
2019-04-26T07:56:16.188Z,12.07
2019-04-26T07:59:29.830Z,12.35
2019-04-26T08:02:32.976Z,12.10
2019-04-26T08:05:15.261Z,12.37
2019-04-26T08:07:48.330Z,12.35
2019-04-26T08:10:21.257Z,11.73
2019-04-26T08:12:57.371Z,11.95
2019-04-26T08:15:42.373Z,12.23
2019-04-26T08:18:21.155Z,12.70
2019-04-26T08:20:54.706Z,11.53
2019-04-26T08:23:39.487Z,11.73
2019-04-26T08:26:07.630Z,12.53
2019-04-26T08:28:39.343Z,10.90
2019-04-26T08:31:15.456Z,11.30
2019-04-26T08:33:49.890Z,11.08
2019-04-26T08:36:23.194Z,11.30
2019-04-26T08:38:54.036Z,12.05
2019-04-26T08:41:25.212Z,11.97
2019-04-26T08:44:14.340Z,11.97
2019-04-26T08:46:57.059Z,11.50
2019-04-26T08:49:44.485Z,11.40
2019-04-26T08:52:16.769Z,12.13
2019-04-26T08:54:55.906Z,12.93
2019-04-26T08:57:29.236Z,13.28
2019-04-26T09:00:01.790Z,13.75
2019-04-26T09:03:11.632Z,12.55
2019-04-26T09:06:01.757Z,13.50
2019-04-26T09:08:39.366Z,13.18
2019-04-26T09:11:08.926Z,12.93
2019-04-26T09:13:42.545Z,13.53
2019-04-26T09:16:14.763Z,13.78
2019-04-26T09:18:52.522Z,13.20
2019-04-26T09:21:17.490Z,13.25
2019-04-26T09:24:04.805Z,12.60
2019-04-26T09:26:37.464Z,12.88
2019-04-26T09:29:26.321Z,13.75
2019-04-26T09:31:58.582Z,13.45
2019-04-26T09:34:41.226Z,13.25
2019-04-26T09:37:11.214Z,13.78
2019-04-26T09:39:42.068Z,13.83
2019-04-26T09:42:23.346Z,13.95
2019-04-26T09:45:29.801Z,13.48
2019-04-26T09:48:03.050Z,13.32
2019-04-26T09:50:41.675Z,13.25
2019-04-26T09:53:11.070Z,12.93
2019-04-26T09:55:40.540Z,12.88
2019-04-26T09:58:10.036Z,13.28
2019-04-26T10:00:39.480Z,12.73
2019-04-26T10:03:09.747Z,12.43
2019-04-26T10:05:40.057Z,12.88
2019-04-26T10:08:12.990Z,13.20
2019-04-26T10:10:40.516Z,12.90
2019-04-26T10:13:27.092Z,13.53
2019-04-26T10:16:33.489Z,13.35
2019-04-26T10:19:28.069Z,14.47
2019-04-26T10:21:57.451Z,14.60
2019-04-26T10:24:26.787Z,13.98
2019-04-26T10:26:59.242Z,15.10
2019-04-26T10:29:27.138Z,14.73
2019-04-26T10:31:56.457Z,15.28
2019-04-26T10:34:25.807Z,14.75
2019-04-26T10:36:56.991Z,14.65
2019-04-26T10:39:28.530Z,15.25
2019-04-26T10:41:57.212Z,15.05
2019-04-26T10:44:26.541Z,15.28
2019-04-26T10:46:56.008Z,16.42
2019-04-26T10:49:45.590Z,16.02
2019-04-26T10:52:32.399Z,15.95
2019-04-26T10:55:24.474Z,15.68
2019-04-26T10:57:56.119Z,15.37
2019-04-26T11:00:31.653Z,16.23
2019-04-26T11:03:04.472Z,16.80
2019-04-26T11:05:32.233Z,16.47
2019-04-26T11:08:01.542Z,16.77
2019-04-26T11:10:31.893Z,14.97
2019-04-26T11:13:01.217Z,16.67
2019-04-26T11:15:32.663Z,16.03
2019-04-26T11:18:01.881Z,17.47
2019-04-26T11:20:31.326Z,17.80
2019-04-26T11:23:00.632Z,18.13
2019-04-26T11:25:29.888Z,17.40
2019-04-26T11:27:59.222Z,19.47
2019-04-26T11:30:28.632Z,18.70
2019-04-26T11:32:57.899Z,19.83
2019-04-26T11:35:29.282Z,21.50
2019-04-26T11:37:58.293Z,21.63
2019-04-26T11:40:28.190Z,20.80
2019-04-26T11:42:57.532Z,20.27
2019-04-26T11:45:26.910Z,20.30
2019-04-26T11:47:56.720Z,20.93
2019-04-26T11:50:26.032Z,20.73
2019-04-26T11:52:55.426Z,20.40
2019-04-26T11:55:25.298Z,19.13
2019-04-26T11:57:55.747Z,19.53
2019-04-26T12:00:32.876Z,20.20
2019-04-26T12:03:02.202Z,21.07
2019-04-26T12:05:56.569Z,21.63
2019-04-26T12:08:31.466Z,21.53
2019-04-26T12:11:00.792Z,21.27
2019-04-26T12:13:30.133Z,20.77
2019-04-26T12:15:59.417Z,21.30
2019-04-26T12:18:28.897Z,21.73
2019-04-26T12:21:01.083Z,20.73
2019-04-26T12:23:29.455Z,21.47
2019-04-26T12:25:58.786Z,21.33
2019-04-26T12:28:28.101Z,21.33
2019-04-26T12:30:58.452Z,21.87
2019-04-26T12:33:28.529Z,21.73
2019-04-26T12:35:57.887Z,22.57
2019-04-26T12:38:28.599Z,22.13
2019-04-26T12:40:58.235Z,22.60
2019-04-26T12:43:27.577Z,21.67
2019-04-26T12:46:14.282Z,21.83
2019-04-26T12:48:46.033Z,22.43
2019-04-26T12:51:14.713Z,21.77
2019-04-26T12:53:44.075Z,22.57
2019-04-26T12:56:13.336Z,24.00
2019-04-26T12:58:45.725Z,23.37
2019-04-26T13:01:14.255Z,24.43
2019-04-26T13:03:45.592Z,23.40
2019-04-26T13:06:15.416Z,23.67
2019-04-26T13:08:47.190Z,24.93
2019-04-26T13:11:48.675Z,24.50
2019-04-26T13:14:23.719Z,24.00
2019-04-26T13:17:02.214Z,24.43
2019-04-26T13:19:31.705Z,24.20
2019-04-26T13:22:01.025Z,25.50
2019-04-26T13:24:30.396Z,25.40
2019-04-26T13:26:59.752Z,25.23
2019-04-26T13:29:31.207Z,26.63
2019-04-26T13:32:00.120Z,25.30
2019-04-26T13:34:29.422Z,26.33
2019-04-26T13:36:59.134Z,26.17
2019-04-26T13:39:28.511Z,25.80
2019-04-26T13:42:04.634Z,26.23
2019-04-26T13:44:46.535Z,25.83
2019-04-26T13:47:30.660Z,26.77
2019-04-26T13:50:13.038Z,26.23
2019-04-26T13:52:42.352Z,27.60
2019-04-26T13:55:11.722Z,26.07
2019-04-26T13:57:44.462Z,27.10
2019-04-26T14:00:14.159Z,26.53
2019-04-26T14:02:43.489Z,27.60
2019-04-26T14:05:15.217Z,25.97
2019-04-26T14:07:43.960Z,26.47
2019-04-26T14:10:13.364Z,26.87
2019-04-26T14:12:46.134Z,26.27
2019-04-26T14:15:13.782Z,27.90
2019-04-26T14:17:43.100Z,26.03
2019-04-26T14:20:12.585Z,26.63
2019-04-26T14:22:49.303Z,27.10
2019-04-26T14:25:20.957Z,26.87
2019-04-26T14:27:52.107Z,27.77
2019-04-26T14:30:21.436Z,26.77
2019-04-26T14:32:53.158Z,28.13
2019-04-26T14:35:21.807Z,27.40
2019-04-26T14:37:51.616Z,27.63
2019-04-26T14:40:21.038Z,27.23
2019-04-26T14:42:50.322Z,26.87
2019-04-26T14:45:23.673Z,26.77
2019-04-26T14:47:50.785Z,27.30
2019-04-26T14:50:20.071Z,27.03
2019-04-26T14:52:49.391Z,27.37
2019-04-26T14:55:21.204Z,28.30
2019-04-26T14:57:51.355Z,28.10
2019-04-26T15:00:26.313Z,28.07
2019-04-26T15:03:17.231Z,29.20
2019-04-26T15:05:57.007Z,29.13
2019-04-26T15:08:26.271Z,26.70
2019-04-26T15:11:00.892Z,27.20
2019-04-26T15:13:26.872Z,27.00
2019-04-26T15:15:56.440Z,26.53
2019-04-26T15:18:29.312Z,26.57
2019-04-26T15:20:58.355Z,27.10
2019-04-26T15:23:27.791Z,26.97
2019-04-26T15:25:58.666Z,26.70
2019-04-26T15:28:28.126Z,28.17
2019-04-26T15:30:57.420Z,25.33
2019-04-26T15:33:26.732Z,26.40
2019-04-26T15:35:56.292Z,25.83
2019-04-26T15:38:25.792Z,24.63
2019-04-26T15:41:20.085Z,26.23
2019-04-26T15:44:11.377Z,25.73
2019-04-26T15:46:57.555Z,24.70
2019-04-26T15:49:38.766Z,23.73
2019-04-26T15:52:08.131Z,23.73
2019-04-26T15:54:37.448Z,25.00
2019-04-26T15:57:06.883Z,25.10
2019-04-26T15:59:36.193Z,24.53
2019-04-26T16:02:05.654Z,23.70
2019-04-26T16:04:35.029Z,25.47
2019-04-26T16:07:04.365Z,25.10
2019-04-26T16:09:33.735Z,26.27
2019-04-26T16:12:03.748Z,25.17
2019-04-26T16:14:36.595Z,25.37
2019-04-26T16:17:06.540Z,25.07
2019-04-26T16:19:35.336Z,25.07
2019-04-26T16:22:04.752Z,25.33
2019-04-26T16:24:34.499Z,24.80
2019-04-26T16:27:04.096Z,25.53
2019-04-26T16:29:58.382Z,26.10
2019-04-26T16:32:58.996Z,26.07
2019-04-26T16:35:28.327Z,25.10
2019-04-26T16:40:32.485Z,25.87
2019-04-26T16:43:02.166Z,26.90
2019-04-26T16:45:32.901Z,26.73
2019-04-26T16:48:02.205Z,26.90
2019-04-26T16:50:37.243Z,26.60
2019-04-26T16:53:02.628Z,27.10
2019-04-26T16:55:35.493Z,27.80
2019-04-26T16:58:04.479Z,27.30
2019-04-26T17:00:30.713Z,26.27
2019-04-26T17:00:50.128Z,26.33
2019-04-26T17:03:07.864Z,27.13
2019-04-26T17:05:47.552Z,28.00
2019-04-26T17:08:10.296Z,28.40
2019-04-26T17:10:38.484Z,28.67
2019-04-26T17:13:07.823Z,27.83
2019-04-26T17:15:37.289Z,28.33
2019-04-26T17:18:06.666Z,28.23
2019-04-26T17:20:36.034Z,26.43
2019-04-26T17:23:25.419Z,27.47
2019-04-26T17:26:09.640Z,27.43
2019-04-26T17:28:39.237Z,28.90
2019-04-26T17:31:08.543Z,29.77
2019-04-26T17:33:37.869Z,29.43
2019-04-26T17:36:07.143Z,29.40
2019-04-26T17:38:39.326Z,28.70
2019-04-26T17:41:10.913Z,29.43
2019-04-26T17:43:42.205Z,29.47
2019-04-26T17:46:10.654Z,28.93
2019-04-26T17:48:40.890Z,29.67
2019-04-26T17:51:18.415Z,29.13
2019-04-26T17:53:43.988Z,29.53
2019-04-26T17:56:13.457Z,30.50
2019-04-26T17:58:51.533Z,30.20
2019-04-26T18:01:39.115Z,29.70
2019-04-26T18:03:51.270Z,30.40
2019-04-26T18:06:28.870Z,30.07
2019-04-26T18:08:54.218Z,29.40
2019-04-26T18:11:19.947Z,29.67
2019-04-26T18:13:51.214Z,30.07
2019-04-26T18:16:22.023Z,29.67
2019-04-26T18:19:10.400Z,31.27
2019-04-26T18:21:56.535Z,29.60
2019-04-26T18:24:21.451Z,29.23
2019-04-26T18:26:54.036Z,31.07
2019-04-26T18:29:23.743Z,30.63
2019-04-26T18:31:53.601Z,30.43
2019-04-26T18:34:23.226Z,30.27
2019-04-26T18:36:52.595Z,30.27
2019-04-26T18:39:26.082Z,32.03
2019-04-26T18:41:53.642Z,30.23
2019-04-26T18:44:35.848Z,29.97
2019-04-26T18:47:04.576Z,30.57
2019-04-26T18:49:33.870Z,30.63
2019-04-26T18:52:03.757Z,28.90
2019-04-26T18:54:47.846Z,28.83
2019-04-26T18:57:17.241Z,29.83
2019-04-26T18:59:51.190Z,30.67
2019-04-26T19:02:19.791Z,29.87
2019-04-26T19:04:49.650Z,30.33
2019-04-26T19:07:31.271Z,28.90
2019-04-26T19:10:02.112Z,28.93
2019-04-26T19:12:23.299Z,29.47
2019-04-26T19:15:09.247Z,28.03
2019-04-26T19:17:52.558Z,28.90
2019-04-26T19:20:30.008Z,29.43
2019-04-26T19:23:00.916Z,30.30
2019-04-26T19:25:35.645Z,30.33
2019-04-26T19:28:04.276Z,30.17
2019-04-26T19:30:32.866Z,29.67
2019-04-26T19:33:02.229Z,29.23
2019-04-26T19:35:32.877Z,30.27
2019-04-26T19:38:03.233Z,30.27
2019-04-26T19:40:32.567Z,30.40
2019-04-26T19:43:07.838Z,30.37
2019-04-26T19:45:46.137Z,30.93
2019-04-26T19:48:22.739Z,29.87
2019-04-26T19:51:27.129Z,30.43
2019-04-26T19:54:09.543Z,29.83
2019-04-26T19:57:01.070Z,31.63
2019-04-26T19:59:33.220Z,30.27
2019-04-26T20:01:59.246Z,31.77
2019-04-26T20:04:30.832Z,30.83
2019-04-26T20:07:01.253Z,31.10
2019-04-26T20:09:31.904Z,31.47
2019-04-26T20:12:02.586Z,33.23
2019-04-26T20:14:44.734Z,33.53
2019-04-26T20:17:03.084Z,33.77
2019-04-26T20:19:37.029Z,32.50
2019-04-26T20:22:03.615Z,33.43
2019-04-26T20:24:32.951Z,32.03
2019-04-26T20:27:03.502Z,34.63
2019-04-26T20:29:33.320Z,33.77
2019-04-26T20:32:24.396Z,34.50
2019-04-26T20:35:12.965Z,32.37
2019-04-26T20:37:41.834Z,33.03
2019-04-26T20:40:20.239Z,33.10
2019-04-26T20:42:43.148Z,32.17
2019-04-26T20:45:16.578Z,32.40
2019-04-26T20:47:46.768Z,31.90
2019-04-26T20:50:14.864Z,32.73
2019-04-26T20:52:45.481Z,33.33
2019-04-26T20:55:15.085Z,32.60
2019-04-26T20:57:45.015Z,32.43
2019-04-26T21:00:14.652Z,33.50
2019-04-26T21:02:44.039Z,32.77
2019-04-26T21:05:14.777Z,32.20
2019-04-26T21:07:49.240Z,31.93
2019-04-26T21:10:21.715Z,31.40
2019-04-26T21:12:47.553Z,31.23
2019-04-26T21:15:20.204Z,32.73
2019-04-26T21:17:48.461Z,32.23
2019-04-26T21:20:17.826Z,33.30
2019-04-26T21:22:47.121Z,33.23
2019-04-26T21:25:23.235Z,33.20
2019-04-26T21:27:58.077Z,32.97
2019-04-26T21:30:47.695Z,33.70
2019-04-26T21:33:39.020Z,33.37
2019-04-26T21:36:36.261Z,33.13
2019-04-26T21:39:20.692Z,32.03
2019-04-26T21:41:50.351Z,32.07
2019-04-26T21:44:19.685Z,31.63
2019-04-26T21:46:49.665Z,32.07
2019-04-26T21:49:22.076Z,32.97
2019-04-26T21:51:52.630Z,33.73
2019-04-26T21:54:24.948Z,31.37
2019-04-26T21:56:53.723Z,30.97
2019-04-26T21:59:24.377Z,32.77
2019-04-26T22:01:59.046Z,33.13
2019-04-26T22:04:28.713Z,31.97
2019-04-26T22:07:00.039Z,30.57
2019-04-26T22:09:55.496Z,30.17
2019-04-26T22:12:27.278Z,30.60
2019-04-26T22:15:13.816Z,31.27
2019-04-26T22:17:45.104Z,30.70
2019-04-26T22:20:29.494Z,31.43
2019-04-26T22:23:18.412Z,31.07
2019-04-26T22:25:50.676Z,29.27
2019-04-26T22:28:20.015Z,30.63
2019-04-26T22:30:49.339Z,31.60
2019-04-26T22:33:18.773Z,29.03
2019-04-26T22:35:50.506Z,29.60
2019-04-26T22:38:23.700Z,29.27
2019-04-26T22:40:53.239Z,31.67
2019-04-26T22:43:36.781Z,31.70
2019-04-26T22:46:31.318Z,32.50
2019-04-26T22:49:03.734Z,34.57
2019-04-26T22:51:35.406Z,33.40
2019-04-26T22:54:06.241Z,32.43
2019-04-26T22:56:37.061Z,33.33
2019-04-26T22:59:07.684Z,32.13
2019-04-26T23:01:39.223Z,36.43
2019-04-26T23:04:07.317Z,33.03
2019-04-26T23:06:36.601Z,35.03
2019-04-26T23:09:11.658Z,35.77
2019-04-26T23:11:43.950Z,36.27
2019-04-26T23:14:27.238Z,35.30
2019-04-26T23:17:34.913Z,37.03
2019-04-26T23:20:20.735Z,35.93
2019-04-26T23:22:50.072Z,34.50
2019-04-26T23:25:19.333Z,36.03
2019-04-26T23:27:50.501Z,37.60
2019-04-26T23:30:19.742Z,36.87
2019-04-26T23:32:52.197Z,37.17
2019-04-26T23:35:20.231Z,35.57
2019-04-26T23:37:49.776Z,37.30
2019-04-26T23:40:20.744Z,37.07
2019-04-26T23:42:51.540Z,36.77
2019-04-26T23:45:23.026Z,37.20
2019-04-26T23:47:53.029Z,35.53
2019-04-26T23:50:25.622Z,35.97
2019-04-26T23:52:53.434Z,36.27
2019-04-26T23:55:23.598Z,36.17
2019-04-26T23:57:53.518Z,33.30
